Titonka, Iowa
Current Conditions -  °F | °C
As of 8:15 PM on Friday 24 Oct 2014 (Local Time) from KAXA Reporting Station
Clear Clear  
Wind Chill: 59°   Ceiling: Unl
Heat Index: 59°   Visibility: 10mi
Dew Point: 52°   Wind: 6mph
Humidity: 77%   Direction: 260°W
Pressure: 29.93"   Gusts: NA
Location:  43.24°N, 94.04°W
Report Text: KAXA 250115Z AUTO 26005KT 10SM CLR 15/11 A2993 RMK AO2
Loading
Personal Weather Stations






























Interactive Weather Map
Tropical Storm Tracking
New forecast layout! Learn more

10-Day Weather Forecast

Advertisements
Track Severe Weather on mobile